createdAt,value
2019-05-07T00:00:28.894Z,4.85
2019-05-07T00:02:58.495Z,4.92
2019-05-07T00:05:28.139Z,4.67
2019-05-07T00:07:57.762Z,5.00
2019-05-07T00:10:27.374Z,4.50
2019-05-07T00:12:56.357Z,4.70
2019-05-07T00:15:25.297Z,4.70
2019-05-07T00:17:54.756Z,4.92
2019-05-07T00:20:23.965Z,4.80
2019-05-07T00:22:53.902Z,4.70
2019-05-07T00:25:24.047Z,4.97
2019-05-07T00:27:53.278Z,4.55
2019-05-07T00:30:22.406Z,4.50
2019-05-07T00:32:53.088Z,5.20
2019-05-07T00:35:25.355Z,4.30
2019-05-07T00:37:59.702Z,4.60
2019-05-07T00:40:52.019Z,4.40
2019-05-07T00:43:24.711Z,4.53
2019-05-07T00:45:57.478Z,4.78
2019-05-07T00:48:26.619Z,4.83
2019-05-07T00:51:14.985Z,5.13
2019-05-07T00:53:44.326Z,4.50
2019-05-07T00:56:13.466Z,4.65
2019-05-07T00:58:42.937Z,4.53
2019-05-07T01:01:13.073Z,4.90
2019-05-07T01:03:42.561Z,4.33
2019-05-07T01:06:12.857Z,4.50
2019-05-07T01:08:43.140Z,4.92
2019-05-07T01:11:13.141Z,4.87
2019-05-07T01:13:43.255Z,4.45
2019-05-07T01:16:12.984Z,4.83
2019-05-07T01:18:42.383Z,4.72
2019-05-07T01:21:13.790Z,4.20
2019-05-07T01:23:42.953Z,3.97
2019-05-07T01:26:12.531Z,4.00
2019-05-07T01:29:02.817Z,4.70
2019-05-07T01:31:42.982Z,3.33
2019-05-07T01:34:36.222Z,3.87
2019-05-07T01:37:05.316Z,3.90
2019-05-07T01:39:35.245Z,4.20
2019-05-07T01:42:04.316Z,3.60
2019-05-07T01:44:33.613Z,3.97
2019-05-07T01:47:04.204Z,3.90
2019-05-07T01:49:33.371Z,3.90
2019-05-07T01:52:03.410Z,4.13
2019-05-07T01:54:33.501Z,3.80
2019-05-07T01:57:03.113Z,3.60
2019-05-07T01:59:32.900Z,3.80
2019-05-07T02:02:08.729Z,3.80
2019-05-07T02:04:43.997Z,3.70
2019-05-07T02:07:25.517Z,3.67
2019-05-07T02:10:04.613Z,3.93
2019-05-07T02:12:35.723Z,3.77
2019-05-07T02:15:06.079Z,4.30
2019-05-07T02:17:36.072Z,4.00
2019-05-07T02:20:06.922Z,4.07
2019-05-07T02:22:36.182Z,4.27
2019-05-07T02:25:06.428Z,3.83
2019-05-07T02:27:35.443Z,3.93
2019-05-07T02:30:05.392Z,4.20
2019-05-07T02:32:34.630Z,4.00
2019-05-07T02:35:04.380Z,3.60
2019-05-07T02:37:56.592Z,3.77
2019-05-07T02:40:28.961Z,3.80
2019-05-07T02:42:58.301Z,4.13
2019-05-07T02:45:49.816Z,3.80
2019-05-07T02:48:23.742Z,3.70
2019-05-07T02:51:03.942Z,3.80
2019-05-07T02:53:43.104Z,3.80
2019-05-07T02:56:13.048Z,3.80
2019-05-07T02:58:43.425Z,4.07
2019-05-07T04:17:33.853Z,3.63
2019-05-07T04:20:04.406Z,3.93
2019-05-07T04:22:37.022Z,3.60
2019-05-07T04:25:17.253Z,3.73
2019-05-07T04:27:54.454Z,3.87
2019-05-07T04:30:24.238Z,3.90
2019-05-07T04:32:55.751Z,4.20
2019-05-07T04:35:37.509Z,3.43
2019-05-07T04:38:07.529Z,4.23
2019-05-07T04:40:39.485Z,4.28
2019-05-07T04:43:13.192Z,4.60
2019-05-07T04:45:44.013Z,4.65
2019-05-07T04:48:19.746Z,4.20
2019-05-07T04:50:53.904Z,4.55
2019-05-07T04:53:23.648Z,4.55
2019-05-07T04:55:53.728Z,4.60
2019-05-07T04:58:26.709Z,4.08
2019-05-07T05:00:56.455Z,4.60
2019-05-07T05:03:27.609Z,4.43
2019-05-07T05:05:57.382Z,4.20
2019-05-07T05:08:29.432Z,4.97
2019-05-07T05:10:58.841Z,4.58
2019-05-07T05:13:29.287Z,5.12
2019-05-07T05:16:02.029Z,5.15
2019-05-07T05:18:36.890Z,4.78
2019-05-07T05:21:14.855Z,4.80
2019-05-07T05:24:01.817Z,4.93
2019-05-07T05:26:32.588Z,5.20
2019-05-07T05:29:02.480Z,5.35
2019-05-07T05:31:33.026Z,5.30
2019-05-07T05:34:02.865Z,5.20
2019-05-07T05:36:33.111Z,4.60
2019-05-07T05:39:03.187Z,5.25
2019-05-07T05:41:37.731Z,4.80
2019-05-07T05:44:13.058Z,7.97
2019-05-07T05:46:42.907Z,4.77
2019-05-07T05:49:12.391Z,4.75
2019-05-07T05:51:47.996Z,5.08
2019-05-07T05:54:36.398Z,5.10
2019-05-07T05:57:25.416Z,5.17
2019-05-07T06:00:12.758Z,4.62
2019-05-07T06:02:53.269Z,4.55
2019-05-07T06:05:47.959Z,4.95
2019-05-07T06:08:24.907Z,5.10
2019-05-07T06:11:12.226Z,4.67
2019-05-07T06:14:13.022Z,5.70
2019-05-07T06:16:48.725Z,5.10
2019-05-07T06:19:26.660Z,5.20
2019-05-07T06:22:37.654Z,5.15
2019-05-07T06:25:18.863Z,5.72
2019-05-07T11:07:18.326Z,5.63
2019-05-07T11:09:48.729Z,6.60
2019-05-07T11:12:22.818Z,7.03
2019-05-07T11:14:52.340Z,6.40
2019-05-07T11:17:41.871Z,6.07
2019-05-07T11:20:12.408Z,5.70
2019-05-07T11:22:42.866Z,6.20
2019-05-07T11:25:12.943Z,6.20
2019-05-07T11:27:42.944Z,6.00
2019-05-07T11:30:16.128Z,6.10
2019-05-07T11:32:45.626Z,6.20
2019-05-07T11:35:22.753Z,6.67
2019-05-07T11:58:27.386Z,5.33
2019-05-07T12:01:06.826Z,6.12
2019-05-07T12:03:37.159Z,6.35
2019-05-07T12:06:09.965Z,7.20
2019-05-07T12:08:49.742Z,6.30
2019-05-07T12:11:14.078Z,6.13
2019-05-07T12:13:43.682Z,6.95
2019-05-07T12:16:14.204Z,6.67
2019-05-07T12:18:44.054Z,7.03
2019-05-07T12:21:20.290Z,6.97
2019-05-07T12:23:48.458Z,6.33
2019-05-07T12:26:18.269Z,6.90
2019-05-07T12:28:49.618Z,6.58
2019-05-07T12:31:29.743Z,6.43
2019-05-07T12:34:04.399Z,6.53
2019-05-07T12:36:34.167Z,6.60
2019-05-07T12:39:06.408Z,6.53
2019-05-07T12:41:36.816Z,6.97
2019-05-07T13:56:14.866Z,6.03
2019-05-07T13:58:44.337Z,6.57
2019-05-07T14:01:23.031Z,7.07
2019-05-07T14:03:52.465Z,7.17
2019-05-07T14:06:42.632Z,6.47
2019-05-07T14:09:24.220Z,7.03
2019-05-07T17:54:08.542Z,6.53
2019-05-07T17:56:42.151Z,6.87
2019-05-07T17:59:11.994Z,7.75
2019-05-07T18:01:59.142Z,7.75
2019-05-07T18:04:29.280Z,7.30
2019-05-07T18:07:00.426Z,7.45
2019-05-07T18:09:31.766Z,7.60
2019-05-07T18:12:01.137Z,7.35
2019-05-07T18:14:32.159Z,8.40
2019-05-07T18:17:12.446Z,7.70
2019-05-07T18:19:42.172Z,7.87
2019-05-07T18:22:12.791Z,7.90
2019-05-07T18:24:42.230Z,7.83
2019-05-07T18:27:24.386Z,8.40
2019-05-07T18:29:54.048Z,7.92
2019-05-07T18:32:32.409Z,8.08
2019-05-07T18:35:02.425Z,8.48
2019-05-07T18:37:33.090Z,7.78
2019-05-07T18:40:02.969Z,8.55
2019-05-07T18:42:36.283Z,8.17
2019-05-07T18:45:05.852Z,8.98
2019-05-07T18:47:35.424Z,8.80
2019-05-07T18:50:04.976Z,8.95
2019-05-07T18:52:34.795Z,8.83
2019-05-07T18:55:04.294Z,8.78
2019-05-07T18:57:34.574Z,8.65
2019-05-07T19:00:05.975Z,8.60
2019-05-07T19:02:35.536Z,8.88
2019-05-07T19:05:04.737Z,9.03
2019-05-07T19:07:35.650Z,9.33
2019-05-07T19:10:05.085Z,7.70
2019-05-07T19:12:35.889Z,8.30
2019-05-07T19:15:05.262Z,8.50
2019-05-07T19:17:36.695Z,7.50
2019-05-07T19:20:07.749Z,8.17
2019-05-07T19:22:38.026Z,8.30
2019-05-07T19:30:04.533Z,8.13
2019-05-07T19:32:34.138Z,7.37
2019-05-07T19:35:08.280Z,7.27
2019-05-07T19:50:02.963Z,7.43
2019-05-07T19:52:33.215Z,7.40
2019-05-07T19:55:04.827Z,7.20
2019-05-07T19:57:39.071Z,7.17
2019-05-07T20:00:09.313Z,8.23
2019-05-07T20:02:43.872Z,8.13
2019-05-07T20:05:13.748Z,9.05
2019-05-07T20:07:47.361Z,8.60
2019-05-07T20:10:21.864Z,8.15
2019-05-07T20:12:58.739Z,8.10
2019-05-07T20:15:32.025Z,8.10
2019-05-07T20:18:04.959Z,8.17
2019-05-07T20:20:34.742Z,8.73
2019-05-07T22:01:43.698Z,6.63
2019-05-07T22:04:13.306Z,6.77
2019-05-07T22:06:45.427Z,6.87
2019-05-07T22:09:14.506Z,7.33
2019-05-07T22:11:44.220Z,7.17
2019-05-07T22:14:13.942Z,7.00
2019-05-07T22:16:44.292Z,7.13
2019-05-07T22:19:13.891Z,6.87
2019-05-07T22:21:43.307Z,7.30
2019-05-07T22:24:15.081Z,6.73
2019-05-07T22:49:50.055Z,6.50
2019-05-07T22:52:23.641Z,6.37
2019-05-07T22:54:53.029Z,6.63
2019-05-07T22:57:52.418Z,7.27
2019-05-07T23:00:32.159Z,8.30
2019-05-07T23:03:02.697Z,8.00
2019-05-07T23:05:32.506Z,7.87
2019-05-07T23:08:02.362Z,7.90
2019-05-07T23:11:24.478Z,8.28
2019-05-07T23:13:54.774Z,8.48
2019-05-07T23:16:25.267Z,7.62
2019-05-07T23:18:54.978Z,7.60
2019-05-07T23:21:24.639Z,7.97
2019-05-07T23:23:54.391Z,7.67
2019-05-07T23:26:23.650Z,8.05
2019-05-07T23:28:53.051Z,8.05
2019-05-07T23:31:24.769Z,8.10
2019-05-07T23:33:54.246Z,8.27
2019-05-07T23:36:24.462Z,7.97
2019-05-07T23:39:02.624Z,8.00
2019-05-07T23:41:49.778Z,8.23
2019-05-07T23:44:22.920Z,7.58
2019-05-07T23:46:56.071Z,7.35
2019-05-07T23:49:28.165Z,8.03
2019-05-07T23:52:12.845Z,6.80
2019-05-07T23:54:48.675Z,7.13
2019-05-07T23:57:36.821Z,6.67
